Sunny Noah — JD3284 — position and weather

sailwx.info

Track history (hours):
 
Tides and Currents Weather Stations Pressure Air Temp Water Temp Dewpoint Dewpoint Depression Visibility Wind Speed Wind Dir Waves Ship Positions

Sunny Noah

Last reported at 2017-Nov-03 18:17 UTC. Time now 2017-Nov-19 05:10 UTC.
Position N 34°51' E 139°18'.
Warning: this ship's position is 15 days out of date.

Length 110 m; draft 6.1 m.

Type: Tanker. MMSI: 431003074.

Date/timePositionNaut miles runAvg speedWind from/ knotsBaromVisibWave heightAir tempDewpointWater temp
2017-Nov-03 18:17N 34°51' E 139°18'411.1
2017-Nov-03 17:58N 34°53' E 139°21'510.8
2017-Nov-03 17:29N 34°56' E 139°27'611.5
2017-Nov-03 17:00N 34°59' E 139°32'612.8
2017-Nov-03 16:30N 35°03' E 139°38'713.6
2017-Nov-03 16:00N 35°08' E 139°44'712.9
2017-Nov-03 15:29N 35°14' E 139°46'611.7
2017-Nov-03 15:00N 35°19' E 139°43'611.7
2017-Nov-03 14:30N 35°25' E 139°44'713.9
2017-Nov-03 14:01N 35°29' E 139°51'713.5
2017-Nov-03 13:30N 35°31' E 139°59'3 0.4
2017-Nov-03 07:33N 35°30' E 140°01'0 0.0
2017-Nov-03 07:03N 35°30' E 140°01'0 0.1
2017-Nov-03 06:57N 35°30' E 140°01'0 0.0
2017-Nov-03 06:15N 35°30' E 140°01'0 0.0
2017-Nov-03 05:57N 35°30' E 140°01'0 0.0
2017-Nov-03 05:27N 35°30' E 140°01'0 0.2
2017-Nov-03 04:52N 35°30' E 140°02'2 4.1
2017-Nov-03 04:29N 35°31' E 140°00'1 1.2
2017-Nov-03 03:25N 35°31' E 139°59'0 0.0
2017-Nov-03 02:55N 35°31' E 139°59'0 0.0
2017-Nov-03 02:25N 35°31' E 139°59'0 0.0
2017-Nov-03 01:58N 35°31' E 139°59'0 0.0
2017-Nov-03 01:28N 35°31' E 139°59'0 0.0
2017-Nov-03 00:55N 35°31' E 139°59'0 0.0
2017-Nov-03 00:25N 35°31' E 139°59'2 4.7
2017-Nov-03 00:00N 35°30' E 139°56'613.1
2017-Nov-02 23:30N 35°27' E 139°50'612.7
2017-Nov-02 23:00N 35°22' E 139°45'611.2
2017-Nov-02 22:30N 35°16' E 139°46'611.7
2017-Nov-02 22:00N 35°10' E 139°46'713.0
2017-Nov-02 21:30N 35°04' E 139°43'713.8
2017-Nov-02 21:00N 34°60' E 139°36'713.5
2017-Nov-02 20:30N 34°56' E 139°30'814.0
2017-Nov-02 19:58N 34°51' E 139°23'  
2017-Oct-28 12:15N 34°33' E 134°47'414.0
2017-Oct-28 11:59N 34°35' E 134°51'713.7
2017-Oct-28 11:29N 34°37' E 134°58'612.1
2017-Oct-28 11:00N 34°35' E 135°05'612.6
2017-Oct-28 10:30N 34°29' E 135°03'713.0
2017-Oct-28 10:00N 34°22' E 135°01'612.7
2017-Oct-28 09:30N 34°16' E 134°59'613.0
2017-Oct-28 09:00N 34°10' E 135°00'713.2
2017-Oct-28 08:31N 34°03' E 135°00'21611.8
2017-Oct-27 14:08N 34°51' E 139°16'213.1
2017-Oct-27 13:57N 34°53' E 139°18'613.3
2017-Oct-27 13:28N 34°56' E 139°25'613.4
2017-Oct-27 13:00N 34°60' E 139°31'713.9
2017-Oct-27 12:30N 35°04' E 139°38'714.3
2017-Oct-27 12:00N 35°09' E 139°44'713.7
2017-Oct-27 11:31N 35°15' E 139°46'612.4
2017-Oct-27 11:00N 35°21' E 139°42'613.0
2017-Oct-27 10:31N 35°26' E 139°46'714.5
2017-Oct-27 10:00N 35°30' E 139°53'612.7
2017-Oct-27 09:30N 35°30' E 140°01'1 0.4
2017-Oct-27 07:06N 35°30' E 140°02'0 0.0
2017-Oct-27 06:54N 35°30' E 140°02'0 0.0
2017-Oct-27 06:30N 35°30' E 140°02'1 0.4
2017-Oct-27 02:52N 35°31' E 140°00'2 4.4
2017-Oct-27 02:29N 35°31' E 139°59'0 0.0
2017-Oct-27 01:40N 35°31' E 139°59'0 0.0
2017-Oct-27 01:16N 35°31' E 139°59'0 0.1
2017-Oct-27 00:55N 35°31' E 139°58'0 0.1
2017-Oct-27 00:28N 35°31' E 139°59'2 3.2
2017-Oct-26 23:50N 35°31' E 139°56'513.7
2017-Oct-26 23:30N 35°28' E 139°52'713.7
2017-Oct-26 23:01N 35°24' E 139°46'612.2
2017-Oct-26 22:31N 35°18' E 139°45'612.4
2017-Oct-26 22:00N 35°11' E 139°47'713.1
2017-Oct-26 21:30N 35°06' E 139°43'712.9
2017-Oct-26 21:00N 35°01' E 139°38'713.8
2017-Oct-26 20:30N 34°57' E 139°31'  
Track history (hours):
 
Tides and Currents Weather Stations Pressure Air Temp Water Temp Dewpoint Dewpoint Depression Visibility Wind Speed Wind Dir Waves Ship Positions

Sunny Noah

Last reported at 2017-Nov-03 18:17 UTC. Time now 2017-Nov-19 05:10 UTC.
Position N 34°51' E 139°18'.
Warning: this ship's position is 15 days out of date.

Length 110 m; draft 6.1 m.

Type: Tanker. MMSI: 431003074.

Date/timePositionNaut miles runAvg speedWind from/ knotsBaromVisibWave heightAir tempDewpointWater temp
2017-Nov-03 18:17N 34°51' E 139°18'411.1
2017-Nov-03 17:58N 34°53' E 139°21'510.8
2017-Nov-03 17:29N 34°56' E 139°27'611.5
2017-Nov-03 17:00N 34°59' E 139°32'612.8
2017-Nov-03 16:30N 35°03' E 139°38'713.6
2017-Nov-03 16:00N 35°08' E 139°44'712.9
2017-Nov-03 15:29N 35°14' E 139°46'611.7
2017-Nov-03 15:00N 35°19' E 139°43'611.7
2017-Nov-03 14:30N 35°25' E 139°44'713.9
2017-Nov-03 14:01N 35°29' E 139°51'713.5
2017-Nov-03 13:30N 35°31' E 139°59'3 0.4
2017-Nov-03 07:33N 35°30' E 140°01'0 0.0
2017-Nov-03 07:03N 35°30' E 140°01'0 0.1
2017-Nov-03 06:57N 35°30' E 140°01'0 0.0
2017-Nov-03 06:15N 35°30' E 140°01'0 0.0
2017-Nov-03 05:57N 35°30' E 140°01'0 0.0
2017-Nov-03 05:27N 35°30' E 140°01'0 0.2
2017-Nov-03 04:52N 35°30' E 140°02'2 4.1
2017-Nov-03 04:29N 35°31' E 140°00'1 1.2
2017-Nov-03 03:25N 35°31' E 139°59'0 0.0
2017-Nov-03 02:55N 35°31' E 139°59'0 0.0
2017-Nov-03 02:25N 35°31' E 139°59'0 0.0
2017-Nov-03 01:58N 35°31' E 139°59'0 0.0
2017-Nov-03 01:28N 35°31' E 139°59'0 0.0
2017-Nov-03 00:55N 35°31' E 139°59'0 0.0
2017-Nov-03 00:25N 35°31' E 139°59'2 4.7
2017-Nov-03 00:00N 35°30' E 139°56'613.1
2017-Nov-02 23:30N 35°27' E 139°50'612.7
2017-Nov-02 23:00N 35°22' E 139°45'611.2
2017-Nov-02 22:30N 35°16' E 139°46'611.7
2017-Nov-02 22:00N 35°10' E 139°46'713.0
2017-Nov-02 21:30N 35°04' E 139°43'713.8
2017-Nov-02 21:00N 34°60' E 139°36'713.5
2017-Nov-02 20:30N 34°56' E 139°30'814.0
2017-Nov-02 19:58N 34°51' E 139°23'  
2017-Oct-28 12:15N 34°33' E 134°47'414.0
2017-Oct-28 11:59N 34°35' E 134°51'713.7
2017-Oct-28 11:29N 34°37' E 134°58'612.1
2017-Oct-28 11:00N 34°35' E 135°05'612.6
2017-Oct-28 10:30N 34°29' E 135°03'713.0
2017-Oct-28 10:00N 34°22' E 135°01'612.7
2017-Oct-28 09:30N 34°16' E 134°59'613.0
2017-Oct-28 09:00N 34°10' E 135°00'713.2
2017-Oct-28 08:31N 34°03' E 135°00'21611.8
2017-Oct-27 14:08N 34°51' E 139°16'213.1
2017-Oct-27 13:57N 34°53' E 139°18'613.3
2017-Oct-27 13:28N 34°56' E 139°25'613.4
2017-Oct-27 13:00N 34°60' E 139°31'713.9
2017-Oct-27 12:30N 35°04' E 139°38'714.3
2017-Oct-27 12:00N 35°09' E 139°44'713.7
2017-Oct-27 11:31N 35°15' E 139°46'612.4
2017-Oct-27 11:00N 35°21' E 139°42'613.0
2017-Oct-27 10:31N 35°26' E 139°46'714.5
2017-Oct-27 10:00N 35°30' E 139°53'612.7
2017-Oct-27 09:30N 35°30' E 140°01'1 0.4
2017-Oct-27 07:06N 35°30' E 140°02'0 0.0
2017-Oct-27 06:54N 35°30' E 140°02'0 0.0
2017-Oct-27 06:30N 35°30' E 140°02'1 0.4
2017-Oct-27 02:52N 35°31' E 140°00'2 4.4
2017-Oct-27 02:29N 35°31' E 139°59'0 0.0
2017-Oct-27 01:40N 35°31' E 139°59'0 0.0
2017-Oct-27 01:16N 35°31' E 139°59'0 0.1
2017-Oct-27 00:55N 35°31' E 139°58'0 0.1
2017-Oct-27 00:28N 35°31' E 139°59'2 3.2
2017-Oct-26 23:50N 35°31' E 139°56'513.7
2017-Oct-26 23:30N 35°28' E 139°52'713.7
2017-Oct-26 23:01N 35°24' E 139°46'612.2
2017-Oct-26 22:31N 35°18' E 139°45'612.4
2017-Oct-26 22:00N 35°11' E 139°47'713.1
2017-Oct-26 21:30N 35°06' E 139°43'712.9
2017-Oct-26 21:00N 35°01' E 139°38'713.8
2017-Oct-26 20:30N 34°57' E 139°31'  

Dump ship's entire track history